sensor_id;sensor_type;location;lat;lon;timestamp;P1;durP1;ratioP1;P2;durP2;ratioP2
58516;SDS011;44308;50.810;0.284;2022-08-01T00:01:54;20.58;;;6.63;;
58516;SDS011;44308;50.810;0.284;2022-08-01T00:04:21;19.23;;;5.93;;
58516;SDS011;44308;50.810;0.284;2022-08-01T00:06:47;41.85;;;7.28;;
58516;SDS011;44308;50.810;0.284;2022-08-01T00:09:13;26.73;;;6.15;;
58516;SDS011;44308;50.810;0.284;2022-08-01T00:11:38;20.45;;;6.25;;
58516;SDS011;44308;50.810;0.284;2022-08-01T00:14:05;26.33;;;6.65;;
58516;SDS011;44308;50.810;0.284;2022-08-01T00:16:31;27.20;;;6.28;;
58516;SDS011;44308;50.810;0.284;2022-08-01T00:18:57;21.80;;;6.40;;
58516;SDS011;44308;50.810;0.284;2022-08-01T00:21:22;24.90;;;6.90;;
58516;SDS011;44308;50.810;0.284;2022-08-01T00:23:48;21.63;;;6.97;;
58516;SDS011;44308;50.810;0.284;2022-08-01T00:26:14;18.73;;;6.32;;
58516;SDS011;44308;50.810;0.284;2022-08-01T00:28:40;24.67;;;7.50;;
58516;SDS011;44308;50.810;0.284;2022-08-01T00:31:06;20.27;;;6.40;;
58516;SDS011;44308;50.810;0.284;2022-08-01T00:33:33;16.42;;;5.45;;
58516;SDS011;44308;50.810;0.284;2022-08-01T00:35:59;21.17;;;5.75;;
58516;SDS011;44308;50.810;0.284;2022-08-01T00:38:25;17.60;;;5.63;;
58516;SDS011;44308;50.810;0.284;2022-08-01T00:40:51;19.02;;;5.70;;
58516;SDS011;44308;50.810;0.284;2022-08-01T00:43:16;25.33;;;6.88;;
58516;SDS011;44308;50.810;0.284;2022-08-01T00:45:42;39.85;;;7.28;;
58516;SDS011;44308;50.810;0.284;2022-08-01T00:48:08;21.52;;;6.95;;
58516;SDS011;44308;50.810;0.284;2022-08-01T00:50:34;18.45;;;5.72;;
58516;SDS011;44308;50.810;0.284;2022-08-01T00:53:00;26.05;;;6.72;;
58516;SDS011;44308;50.810;0.284;2022-08-01T00:55:26;22.17;;;6.15;;
58516;SDS011;44308;50.810;0.284;2022-08-01T00:57:53;18.50;;;5.88;;
58516;SDS011;44308;50.810;0.284;2022-08-01T01:00:20;29.30;;;6.63;;
58516;SDS011;44308;50.810;0.284;2022-08-01T01:02:46;20.38;;;6.03;;
58516;SDS011;44308;50.810;0.284;2022-08-01T01:05:12;18.40;;;6.80;;
58516;SDS011;44308;50.810;0.284;2022-08-01T01:10:19;25.30;;;7.07;;
58516;SDS011;44308;50.810;0.284;2022-08-01T01:15:30;29.08;;;6.88;;
58516;SDS011;44308;50.810;0.284;2022-08-01T01:20:37;21.63;;;6.13;;
58516;SDS011;44308;50.810;0.284;2022-08-01T01:28:33;17.80;;;6.72;;
58516;SDS011;44308;50.810;0.284;2022-08-01T01:31:12;29.85;;;7.93;;
58516;SDS011;44308;50.810;0.284;2022-08-01T01:33:40;20.25;;;7.85;;
58516;SDS011;44308;50.810;0.284;2022-08-01T01:36:08;19.58;;;6.97;;
58516;SDS011;44308;50.810;0.284;2022-08-01T01:38:39;14.20;;;6.65;;
58516;SDS011;44308;50.810;0.284;2022-08-01T01:41:07;16.15;;;7.35;;
58516;SDS011;44308;50.810;0.284;2022-08-01T01:43:36;14.23;;;6.53;;
58516;SDS011;44308;50.810;0.284;2022-08-01T01:46:03;18.17;;;6.95;;
58516;SDS011;44308;50.810;0.284;2022-08-01T01:48:30;15.45;;;6.60;;
58516;SDS011;44308;50.810;0.284;2022-08-01T01:50:58;10.32;;;6.88;;
58516;SDS011;44308;50.810;0.284;2022-08-01T01:53:25;19.02;;;7.13;;
58516;SDS011;44308;50.810;0.284;2022-08-01T01:55:53;23.27;;;8.32;;
58516;SDS011;44308;50.810;0.284;2022-08-01T01:58:23;12.40;;;8.07;;
58516;SDS011;44308;50.810;0.284;2022-08-01T02:00:50;19.85;;;8.75;;
58516;SDS011;44308;50.810;0.284;2022-08-01T02:03:17;13.52;;;7.88;;
58516;SDS011;44308;50.810;0.284;2022-08-01T02:05:45;18.33;;;8.32;;
58516;SDS011;44308;50.810;0.284;2022-08-01T02:08:12;12.48;;;8.98;;
58516;SDS011;44308;50.810;0.284;2022-08-01T02:10:41;20.95;;;9.93;;
58516;SDS011;44308;50.810;0.284;2022-08-01T02:13:28;16.52;;;10.35;;
58516;SDS011;44308;50.810;0.284;2022-08-01T02:15:55;17.70;;;10.50;;
58516;SDS011;44308;50.810;0.284;2022-08-01T02:18:21;12.15;;;9.70;;
58516;SDS011;44308;50.810;0.284;2022-08-01T02:20:47;16.73;;;12.32;;
58516;SDS011;44308;50.810;0.284;2022-08-01T02:23:17;15.27;;;12.60;;
58516;SDS011;44308;50.810;0.284;2022-08-01T02:25:44;16.52;;;14.27;;
58516;SDS011;44308;50.810;0.284;2022-08-01T02:28:17;21.80;;;16.00;;
58516;SDS011;44308;50.810;0.284;2022-08-01T02:30:53;23.23;;;17.63;;
58516;SDS011;44308;50.810;0.284;2022-08-01T02:33:29;20.35;;;18.45;;
58516;SDS011;44308;50.810;0.284;2022-08-01T02:36:02;26.45;;;20.23;;
58516;SDS011;44308;50.810;0.284;2022-08-01T02:38:30;21.85;;;19.08;;
58516;SDS011;44308;50.810;0.284;2022-08-01T02:40:59;22.50;;;20.23;;
58516;SDS011;44308;50.810;0.284;2022-08-01T02:43:33;21.02;;;18.75;;
58516;SDS011;44308;50.810;0.284;2022-08-01T02:46:02;22.35;;;19.95;;
58516;SDS011;44308;50.810;0.284;2022-08-01T02:48:32;20.92;;;18.73;;
58516;SDS011;44308;50.810;0.284;2022-08-01T02:51:01;19.65;;;17.67;;
58516;SDS011;44308;50.810;0.284;2022-08-01T02:53:30;25.73;;;18.98;;
58516;SDS011;44308;50.810;0.284;2022-08-01T02:56:01;19.58;;;17.48;;
58516;SDS011;44308;50.810;0.284;2022-08-01T02:58:30;24.58;;;16.75;;
58516;SDS011;44308;50.810;0.284;2022-08-01T03:00:58;19.05;;;14.73;;
58516;SDS011;44308;50.810;0.284;2022-08-01T03:03:25;16.88;;;15.07;;
58516;SDS011;44308;50.810;0.284;2022-08-01T03:05:51;23.92;;;15.30;;
58516;SDS011;44308;50.810;0.284;2022-08-01T03:08:17;23.67;;;15.50;;
58516;SDS011;44308;50.810;0.284;2022-08-01T03:10:45;24.52;;;15.38;;
58516;SDS011;44308;50.810;0.284;2022-08-01T03:13:15;30.23;;;17.25;;
58516;SDS011;44308;50.810;0.284;2022-08-01T03:15:43;19.75;;;15.57;;
58516;SDS011;44308;50.810;0.284;2022-08-01T03:18:09;17.77;;;15.95;;
58516;SDS011;44308;50.810;0.284;2022-08-01T03:20:37;19.52;;;15.10;;
58516;SDS011;44308;50.810;0.284;2022-08-01T03:23:05;20.13;;;16.05;;
58516;SDS011;44308;50.810;0.284;2022-08-01T03:25:32;20.85;;;15.38;;
58516;SDS011;44308;50.810;0.284;2022-08-01T03:28:02;20.42;;;14.70;;
58516;SDS011;44308;50.810;0.284;2022-08-01T03:30:29;17.05;;;14.52;;
58516;SDS011;44308;50.810;0.284;2022-08-01T03:32:58;29.52;;;15.70;;
58516;SDS011;44308;50.810;0.284;2022-08-01T03:35:29;30.20;;;15.57;;
58516;SDS011;44308;50.810;0.284;2022-08-01T03:37:58;24.83;;;14.63;;
58516;SDS011;44308;50.810;0.284;2022-08-01T03:40:32;21.02;;;13.98;;
58516;SDS011;44308;50.810;0.284;2022-08-01T03:43:15;19.15;;;14.13;;
58516;SDS011;44308;50.810;0.284;2022-08-01T03:46:10;19.38;;;13.80;;
58516;SDS011;44308;50.810;0.284;2022-08-01T03:48:43;19.27;;;13.70;;
58516;SDS011;44308;50.810;0.284;2022-08-01T03:51:13;19.02;;;13.18;;
58516;SDS011;44308;50.810;0.284;2022-08-01T03:53:42;17.52;;;13.23;;
58516;SDS011;44308;50.810;0.284;2022-08-01T03:56:10;20.58;;;13.35;;
58516;SDS011;44308;50.810;0.284;2022-08-01T03:58:41;20.30;;;12.60;;
58516;SDS011;44308;50.810;0.284;2022-08-01T04:01:08;17.23;;;12.73;;
58516;SDS011;44308;50.810;0.284;2022-08-01T04:03:35;18.50;;;12.95;;
58516;SDS011;44308;50.810;0.284;2022-08-01T04:06:05;20.33;;;12.35;;
58516;SDS011;44308;50.810;0.284;2022-08-01T04:08:39;15.43;;;12.27;;
58516;SDS011;44308;50.810;0.284;2022-08-01T04:11:07;16.90;;;11.57;;
58516;SDS011;44308;50.810;0.284;2022-08-01T04:13:35;22.67;;;11.13;;
58516;SDS011;44308;50.810;0.284;2022-08-01T04:16:01;21.38;;;11.75;;
58516;SDS011;44308;50.810;0.284;2022-08-01T04:18:26;14.80;;;11.35;;
58516;SDS011;44308;50.810;0.284;2022-08-01T04:20:52;19.10;;;12.40;;
58516;SDS011;44308;50.810;0.284;2022-08-01T04:23:20;18.35;;;11.82;;
58516;SDS011;44308;50.810;0.284;2022-08-01T04:25:52;17.77;;;10.05;;
58516;SDS011;44308;50.810;0.284;2022-08-01T04:28:20;11.07;;;9.13;;
58516;SDS011;44308;50.810;0.284;2022-08-01T04:30:48;13.30;;;9.27;;
58516;SDS011;44308;50.810;0.284;2022-08-01T04:33:18;20.88;;;10.85;;
58516;SDS011;44308;50.810;0.284;2022-08-01T04:35:45;18.67;;;9.40;;
58516;SDS011;44308;50.810;0.284;2022-08-01T04:38:13;12.38;;;9.88;;
58516;SDS011;44308;50.810;0.284;2022-08-01T04:40:44;19.20;;;11.57;;
58516;SDS011;44308;50.810;0.284;2022-08-01T04:43:11;18.50;;;10.98;;
58516;SDS011;44308;50.810;0.284;2022-08-01T04:45:37;16.77;;;11.23;;
58516;SDS011;44308;50.810;0.284;2022-08-01T04:48:06;21.63;;;12.50;;
58516;SDS011;44308;50.810;0.284;2022-08-01T04:50:35;21.33;;;11.75;;
58516;SDS011;44308;50.810;0.284;2022-08-01T04:53:01;13.80;;;9.40;;
58516;SDS011;44308;50.810;0.284;2022-08-01T04:55:28;16.30;;;10.50;;
58516;SDS011;44308;50.810;0.284;2022-08-01T04:57:56;19.55;;;9.98;;
58516;SDS011;44308;50.810;0.284;2022-08-01T05:00:22;12.95;;;9.65;;
58516;SDS011;44308;50.810;0.284;2022-08-01T05:02:47;13.15;;;9.13;;
58516;SDS011;44308;50.810;0.284;2022-08-01T05:05:13;9.48;;;8.27;;
58516;SDS011;44308;50.810;0.284;2022-08-01T05:07:39;14.00;;;9.02;;
58516;SDS011;44308;50.810;0.284;2022-08-01T05:10:05;17.13;;;8.73;;
58516;SDS011;44308;50.810;0.284;2022-08-01T05:12:31;14.20;;;7.35;;
58516;SDS011;44308;50.810;0.284;2022-08-01T05:14:58;14.82;;;8.10;;
58516;SDS011;44308;50.810;0.284;2022-08-01T05:17:24;13.77;;;7.22;;
58516;SDS011;44308;50.810;0.284;2022-08-01T05:19:50;8.82;;;6.05;;
58516;SDS011;44308;50.810;0.284;2022-08-01T05:22:16;7.15;;;4.93;;
58516;SDS011;44308;50.810;0.284;2022-08-01T05:24:42;6.28;;;4.72;;
58516;SDS011;44308;50.810;0.284;2022-08-01T05:27:08;9.18;;;3.60;;
58516;SDS011;44308;50.810;0.284;2022-08-01T05:29:34;8.75;;;2.75;;
58516;SDS011;44308;50.810;0.284;2022-08-01T05:32:00;7.88;;;2.45;;
58516;SDS011;44308;50.810;0.284;2022-08-01T05:34:27;13.95;;;2.88;;
58516;SDS011;44308;50.810;0.284;2022-08-01T05:36:53;3.97;;;2.15;;
58516;SDS011;44308;50.810;0.284;2022-08-01T05:39:19;8.75;;;2.10;;
58516;SDS011;44308;50.810;0.284;2022-08-01T05:41:45;4.30;;;2.40;;
58516;SDS011;44308;50.810;0.284;2022-08-01T05:44:11;14.00;;;2.92;;
58516;SDS011;44308;50.810;0.284;2022-08-01T05:46:36;8.05;;;2.50;;
58516;SDS011;44308;50.810;0.284;2022-08-01T05:49:02;6.55;;;2.65;;
58516;SDS011;44308;50.810;0.284;2022-08-01T05:51:29;21.55;;;3.30;;
58516;SDS011;44308;50.810;0.284;2022-08-01T05:53:57;11.55;;;3.00;;
58516;SDS011;44308;50.810;0.284;2022-08-01T05:56:23;4.25;;;2.33;;
58516;SDS011;44308;50.810;0.284;2022-08-01T05:58:49;7.47;;;2.42;;
58516;SDS011;44308;50.810;0.284;2022-08-01T06:01:15;7.28;;;2.53;;
58516;SDS011;44308;50.810;0.284;2022-08-01T06:03:43;8.10;;;2.40;;
58516;SDS011;44308;50.810;0.284;2022-08-01T06:06:09;10.85;;;2.67;;
58516;SDS011;44308;50.810;0.284;2022-08-01T06:08:34;6.50;;;2.70;;
58516;SDS011;44308;50.810;0.284;2022-08-01T06:11:00;6.43;;;2.88;;
58516;SDS011;44308;50.810;0.284;2022-08-01T06:13:28;6.70;;;3.03;;
58516;SDS011;44308;50.810;0.284;2022-08-01T06:15:54;3.78;;;2.38;;
58516;SDS011;44308;50.810;0.284;2022-08-01T06:18:21;4.38;;;2.70;;
58516;SDS011;44308;50.810;0.284;2022-08-01T06:20:46;8.65;;;2.88;;
58516;SDS011;44308;50.810;0.284;2022-08-01T06:23:12;2.58;;;2.10;;
58516;SDS011;44308;50.810;0.284;2022-08-01T06:25:41;3.58;;;1.80;;
58516;SDS011;44308;50.810;0.284;2022-08-01T06:28:07;2.17;;;1.77;;
58516;SDS011;44308;50.810;0.284;2022-08-01T06:30:33;6.43;;;2.35;;
58516;SDS011;44308;50.810;0.284;2022-08-01T06:32:59;4.65;;;2.22;;
58516;SDS011;44308;50.810;0.284;2022-08-01T06:35:25;9.43;;;2.30;;
58516;SDS011;44308;50.810;0.284;2022-08-01T06:37:51;4.05;;;2.22;;
58516;SDS011;44308;50.810;0.284;2022-08-01T06:40:17;3.08;;;1.70;;
58516;SDS011;44308;50.810;0.284;2022-08-01T06:42:43;3.00;;;1.63;;
58516;SDS011;44308;50.810;0.284;2022-08-01T06:45:15;3.35;;;1.73;;
58516;SDS011;44308;50.810;0.284;2022-08-01T06:47:42;3.30;;;1.60;;
58516;SDS011;44308;50.810;0.284;2022-08-01T06:50:09;3.60;;;1.70;;
58516;SDS011;44308;50.810;0.284;2022-08-01T06:52:35;3.08;;;1.65;;
58516;SDS011;44308;50.810;0.284;2022-08-01T06:55:02;3.45;;;1.58;;
58516;SDS011;44308;50.810;0.284;2022-08-01T06:57:28;3.38;;;1.70;;
58516;SDS011;44308;50.810;0.284;2022-08-01T06:59:54;9.90;;;1.90;;
58516;SDS011;44308;50.810;0.284;2022-08-01T07:02:21;6.35;;;1.67;;
58516;SDS011;44308;50.810;0.284;2022-08-01T07:07:51;3.10;;;1.65;;
58516;SDS011;44308;50.810;0.284;2022-08-01T07:10:17;5.53;;;1.73;;
58516;SDS011;44308;50.810;0.284;2022-08-01T07:12:43;4.07;;;1.67;;
58516;SDS011;44308;50.810;0.284;2022-08-01T07:17:55;6.43;;;1.98;;
58516;SDS011;44308;50.810;0.284;2022-08-01T07:20:22;5.82;;;1.40;;
58516;SDS011;44308;50.810;0.284;2022-08-01T07:22:47;3.40;;;1.42;;
58516;SDS011;44308;50.810;0.284;2022-08-01T07:27:57;4.03;;;1.17;;
58516;SDS011;44308;50.810;0.284;2022-08-01T07:30:23;2.30;;;1.15;;
58516;SDS011;44308;50.810;0.284;2022-08-01T07:32:49;7.38;;;1.45;;
58516;SDS011;44308;50.810;0.284;2022-08-01T07:35:17;3.97;;;1.17;;
58516;SDS011;44308;50.810;0.284;2022-08-01T07:37:43;1.73;;;1.20;;
58516;SDS011;44308;50.810;0.284;2022-08-01T07:40:08;5.25;;;1.38;;
58516;SDS011;44308;50.810;0.284;2022-08-01T07:42:35;4.72;;;1.35;;
58516;SDS011;44308;50.810;0.284;2022-08-01T07:45:01;4.78;;;1.90;;
58516;SDS011;44308;50.810;0.284;2022-08-01T07:47:27;5.80;;;1.52;;
58516;SDS011;44308;50.810;0.284;2022-08-01T07:49:58;6.97;;;1.40;;
58516;SDS011;44308;50.810;0.284;2022-08-01T07:54:52;2.13;;;1.60;;
58516;SDS011;44308;50.810;0.284;2022-08-01T07:57:18;3.92;;;1.52;;
58516;SDS011;44308;50.810;0.284;2022-08-01T07:59:44;6.20;;;1.83;;
58516;SDS011;44308;50.810;0.284;2022-08-01T08:02:09;2.45;;;1.38;;
58516;SDS011;44308;50.810;0.284;2022-08-01T08:04:36;4.55;;;1.98;;
58516;SDS011;44308;50.810;0.284;2022-08-01T08:07:02;4.15;;;1.40;;
58516;SDS011;44308;50.810;0.284;2022-08-01T08:09:28;1.58;;;1.23;;
58516;SDS011;44308;50.810;0.284;2022-08-01T08:11:54;1.60;;;1.38;;
58516;SDS011;44308;50.810;0.284;2022-08-01T08:17:05;9.95;;;2.47;;
58516;SDS011;44308;50.810;0.284;2022-08-01T08:19:31;4.38;;;2.10;;
58516;SDS011;44308;50.810;0.284;2022-08-01T08:21:58;26.95;;;4.80;;
58516;SDS011;44308;50.810;0.284;2022-08-01T08:24:27;7.55;;;2.05;;
58516;SDS011;44308;50.810;0.284;2022-08-01T08:26:54;7.38;;;2.15;;
58516;SDS011;44308;50.810;0.284;2022-08-01T08:29:21;6.70;;;2.72;;
58516;SDS011;44308;50.810;0.284;2022-08-01T08:31:47;4.22;;;2.28;;
58516;SDS011;44308;50.810;0.284;2022-08-01T08:34:15;11.23;;;2.47;;
58516;SDS011;44308;50.810;0.284;2022-08-01T08:36:41;4.50;;;1.98;;
58516;SDS011;44308;50.810;0.284;2022-08-01T08:39:06;7.55;;;2.17;;
58516;SDS011;44308;50.810;0.284;2022-08-01T08:41:33;4.25;;;2.65;;
58516;SDS011;44308;50.810;0.284;2022-08-01T08:44:02;8.65;;;1.65;;
58516;SDS011;44308;50.810;0.284;2022-08-01T08:48:58;2.78;;;1.90;;
58516;SDS011;44308;50.810;0.284;2022-08-01T08:51:26;16.15;;;2.53;;
58516;SDS011;44308;50.810;0.284;2022-08-01T08:53:56;2.78;;;1.40;;
58516;SDS011;44308;50.810;0.284;2022-08-01T08:56:25;8.20;;;1.77;;
58516;SDS011;44308;50.810;0.284;2022-08-01T08:58:55;4.60;;;1.60;;
58516;SDS011;44308;50.810;0.284;2022-08-01T09:01:22;4.65;;;1.20;;
58516;SDS011;44308;50.810;0.284;2022-08-01T09:03:48;2.72;;;1.20;;
58516;SDS011;44308;50.810;0.284;2022-08-01T09:06:14;4.15;;;1.65;;
58516;SDS011;44308;50.810;0.284;2022-08-01T09:08:39;2.47;;;1.42;;
58516;SDS011;44308;50.810;0.284;2022-08-01T09:11:05;5.72;;;1.77;;
58516;SDS011;44308;50.810;0.284;2022-08-01T09:13:31;3.42;;;1.20;;
58516;SDS011;44308;50.810;0.284;2022-08-01T09:15:57;6.88;;;2.03;;
58516;SDS011;44308;50.810;0.284;2022-08-01T09:18:37;7.10;;;1.88;;
58516;SDS011;44308;50.810;0.284;2022-08-01T09:21:13;8.45;;;2.42;;
58516;SDS011;44308;50.810;0.284;2022-08-01T09:26:12;2.17;;;1.20;;
58516;SDS011;44308;50.810;0.284;2022-08-01T09:28:41;5.45;;;2.28;;
58516;SDS011;44308;50.810;0.284;2022-08-01T09:31:11;4.97;;;2.38;;
58516;SDS011;44308;50.810;0.284;2022-08-01T09:36:43;3.88;;;1.38;;
58516;SDS011;44308;50.810;0.284;2022-08-01T09:39:13;5.90;;;2.00;;
58516;SDS011;44308;50.810;0.284;2022-08-01T09:41:40;2.95;;;1.88;;
58516;SDS011;44308;50.810;0.284;2022-08-01T09:44:06;5.57;;;1.80;;
58516;SDS011;44308;50.810;0.284;2022-08-01T09:46:32;5.03;;;2.08;;
58516;SDS011;44308;50.810;0.284;2022-08-01T09:49:02;5.35;;;2.15;;
58516;SDS011;44308;50.810;0.284;2022-08-01T09:51:33;8.48;;;1.77;;
58516;SDS011;44308;50.810;0.284;2022-08-01T09:54:01;3.65;;;1.90;;
58516;SDS011;44308;50.810;0.284;2022-08-01T09:56:38;6.03;;;2.08;;
58516;SDS011;44308;50.810;0.284;2022-08-01T09:59:07;2.00;;;1.58;;
58516;SDS011;44308;50.810;0.284;2022-08-01T10:01:44;4.97;;;1.48;;
58516;SDS011;44308;50.810;0.284;2022-08-01T10:04:12;2.55;;;1.23;;
58516;SDS011;44308;50.810;0.284;2022-08-01T10:06:41;2.75;;;1.33;;
58516;SDS011;44308;50.810;0.284;2022-08-01T10:09:10;3.35;;;1.60;;
58516;SDS011;44308;50.810;0.284;2022-08-01T10:11:37;8.63;;;1.77;;
58516;SDS011;44308;50.810;0.284;2022-08-01T10:14:06;7.28;;;2.00;;
58516;SDS011;44308;50.810;0.284;2022-08-01T10:16:33;2.05;;;1.40;;
58516;SDS011;44308;50.810;0.284;2022-08-01T10:19:02;5.15;;;1.50;;
58516;SDS011;44308;50.810;0.284;2022-08-01T10:21:30;10.40;;;2.05;;
58516;SDS011;44308;50.810;0.284;2022-08-01T10:23:59;5.43;;;1.50;;
58516;SDS011;44308;50.810;0.284;2022-08-01T10:26:26;3.92;;;2.30;;
58516;SDS011;44308;50.810;0.284;2022-08-01T10:28:56;2.47;;;1.67;;
58516;SDS011;44308;50.810;0.284;2022-08-01T10:31:22;4.93;;;1.83;;
58516;SDS011;44308;50.810;0.284;2022-08-01T10:33:49;4.38;;;2.00;;
58516;SDS011;44308;50.810;0.284;2022-08-01T10:36:17;14.25;;;2.13;;
58516;SDS011;44308;50.810;0.284;2022-08-01T10:38:45;4.90;;;2.58;;
58516;SDS011;44308;50.810;0.284;2022-08-01T10:41:11;2.60;;;2.15;;
58516;SDS011;44308;50.810;0.284;2022-08-01T10:43:40;6.05;;;2.40;;
58516;SDS011;44308;50.810;0.284;2022-08-01T10:46:07;8.88;;;2.90;;
58516;SDS011;44308;50.810;0.284;2022-08-01T10:48:55;4.00;;;2.40;;
58516;SDS011;44308;50.810;0.284;2022-08-01T10:51:21;6.40;;;2.85;;
58516;SDS011;44308;50.810;0.284;2022-08-01T10:53:52;6.07;;;3.22;;
58516;SDS011;44308;50.810;0.284;2022-08-01T10:56:18;6.38;;;2.92;;
58516;SDS011;44308;50.810;0.284;2022-08-01T10:58:46;5.80;;;3.33;;
58516;SDS011;44308;50.810;0.284;2022-08-01T11:01:25;4.60;;;3.22;;
58516;SDS011;44308;50.810;0.284;2022-08-01T11:08:58;23.70;;;5.20;;
58516;SDS011;44308;50.810;0.284;2022-08-01T11:11:29;13.03;;;4.80;;
58516;SDS011;44308;50.810;0.284;2022-08-01T11:14:03;10.52;;;5.05;;
58516;SDS011;44308;50.810;0.284;2022-08-01T11:16:35;11.02;;;5.43;;
58516;SDS011;44308;50.810;0.284;2022-08-01T11:19:06;8.63;;;4.65;;
58516;SDS011;44308;50.810;0.284;2022-08-01T11:27:15;7.28;;;4.35;;
58516;SDS011;44308;50.810;0.284;2022-08-01T11:29:42;10.57;;;7.18;;
58516;SDS011;44308;50.810;0.284;2022-08-01T11:32:24;6.65;;;5.00;;
58516;SDS011;44308;50.810;0.284;2022-08-01T11:37:36;17.15;;;6.60;;
58516;SDS011;44308;50.810;0.284;2022-08-01T11:42:47;10.68;;;6.45;;
58516;SDS011;44308;50.810;0.284;2022-08-01T11:45:52;6.85;;;5.20;;
58516;SDS011;44308;50.810;0.284;2022-08-01T11:48:24;6.38;;;5.25;;
58516;SDS011;44308;50.810;0.284;2022-08-01T11:50:54;9.40;;;6.47;;
58516;SDS011;44308;50.810;0.284;2022-08-01T11:53:21;7.32;;;5.88;;
58516;SDS011;44308;50.810;0.284;2022-08-01T11:55:51;10.40;;;7.03;;
58516;SDS011;44308;50.810;0.284;2022-08-01T11:58:22;6.22;;;5.57;;
58516;SDS011;44308;50.810;0.284;2022-08-01T12:00:53;10.05;;;7.95;;
58516;SDS011;44308;50.810;0.284;2022-08-01T12:03:24;10.00;;;6.57;;
58516;SDS011;44308;50.810;0.284;2022-08-01T12:08:26;9.20;;;7.03;;
58516;SDS011;44308;50.810;0.284;2022-08-01T12:10:52;8.30;;;5.35;;
58516;SDS011;44308;50.810;0.284;2022-08-01T12:16:07;6.53;;;5.88;;
58516;SDS011;44308;50.810;0.284;2022-08-01T12:18:41;7.68;;;5.43;;
58516;SDS011;44308;50.810;0.284;2022-08-01T12:21:07;8.07;;;6.60;;
58516;SDS011;44308;50.810;0.284;2022-08-01T12:23:33;11.30;;;6.75;;
58516;SDS011;44308;50.810;0.284;2022-08-01T12:25:59;8.02;;;7.22;;
58516;SDS011;44308;50.810;0.284;2022-08-01T12:28:25;9.18;;;7.40;;
58516;SDS011;44308;50.810;0.284;2022-08-01T12:30:51;10.13;;;8.45;;
58516;SDS011;44308;50.810;0.284;2022-08-01T12:33:18;8.35;;;7.55;;
58516;SDS011;44308;50.810;0.284;2022-08-01T12:35:45;10.73;;;8.10;;
58516;SDS011;44308;50.810;0.284;2022-08-01T12:38:29;10.32;;;8.02;;
58516;SDS011;44308;50.810;0.284;2022-08-01T12:40:57;12.13;;;6.93;;
58516;SDS011;44308;50.810;0.284;2022-08-01T12:43:23;7.70;;;5.95;;
58516;SDS011;44308;50.810;0.284;2022-08-01T12:45:50;9.07;;;6.82;;
58516;SDS011;44308;50.810;0.284;2022-08-01T12:48:17;9.20;;;8.10;;
58516;SDS011;44308;50.810;0.284;2022-08-01T12:50:44;9.95;;;7.07;;
58516;SDS011;44308;50.810;0.284;2022-08-01T12:53:12;7.68;;;6.85;;
58516;SDS011;44308;50.810;0.284;2022-08-01T12:55:47;8.23;;;6.90;;
58516;SDS011;44308;50.810;0.284;2022-08-01T12:58:18;8.52;;;6.78;;
58516;SDS011;44308;50.810;0.284;2022-08-01T13:00:46;6.15;;;5.55;;
58516;SDS011;44308;50.810;0.284;2022-08-01T13:03:16;9.75;;;6.20;;
58516;SDS011;44308;50.810;0.284;2022-08-01T13:05:53;11.48;;;7.28;;
58516;SDS011;44308;50.810;0.284;2022-08-01T13:08:29;13.85;;;8.13;;
58516;SDS011;44308;50.810;0.284;2022-08-01T13:11:03;13.82;;;6.60;;
58516;SDS011;44308;50.810;0.284;2022-08-01T13:13:38;11.65;;;7.47;;
58516;SDS011;44308;50.810;0.284;2022-08-01T13:16:09;13.10;;;6.25;;
58516;SDS011;44308;50.810;0.284;2022-08-01T13:18:36;12.23;;;7.63;;
58516;SDS011;44308;50.810;0.284;2022-08-01T13:24:01;13.65;;;8.10;;
58516;SDS011;44308;50.810;0.284;2022-08-01T13:26:48;19.92;;;7.80;;
58516;SDS011;44308;50.810;0.284;2022-08-01T13:29:29;12.52;;;7.35;;
58516;SDS011;44308;50.810;0.284;2022-08-01T13:31:59;13.07;;;7.70;;
58516;SDS011;44308;50.810;0.284;2022-08-01T13:34:38;11.07;;;7.22;;
58516;SDS011;44308;50.810;0.284;2022-08-01T13:37:04;19.98;;;7.30;;
58516;SDS011;44308;50.810;0.284;2022-08-01T13:39:30;11.95;;;8.18;;
58516;SDS011;44308;50.810;0.284;2022-08-01T13:42:06;11.18;;;8.75;;
58516;SDS011;44308;50.810;0.284;2022-08-01T13:44:33;8.57;;;7.68;;
58516;SDS011;44308;50.810;0.284;2022-08-01T13:46:59;14.95;;;8.02;;
58516;SDS011;44308;50.810;0.284;2022-08-01T13:49:25;11.95;;;8.68;;
58516;SDS011;44308;50.810;0.284;2022-08-01T13:51:50;18.15;;;8.90;;
58516;SDS011;44308;50.810;0.284;2022-08-01T13:54:18;13.68;;;9.15;;
58516;SDS011;44308;50.810;0.284;2022-08-01T13:56:44;11.88;;;8.63;;
58516;SDS011;44308;50.810;0.284;2022-08-01T13:59:11;11.27;;;8.30;;
58516;SDS011;44308;50.810;0.284;2022-08-01T14:01:37;20.23;;;10.70;;
58516;SDS011;44308;50.810;0.284;2022-08-01T14:04:04;10.93;;;8.43;;
58516;SDS011;44308;50.810;0.284;2022-08-01T14:06:30;18.42;;;10.90;;
58516;SDS011;44308;50.810;0.284;2022-08-01T14:08:57;11.65;;;8.57;;
58516;SDS011;44308;50.810;0.284;2022-08-01T14:11:25;17.30;;;9.57;;
58516;SDS011;44308;50.810;0.284;2022-08-01T14:13:53;12.88;;;8.52;;
58516;SDS011;44308;50.810;0.284;2022-08-01T14:16:20;19.75;;;10.77;;
58516;SDS011;44308;50.810;0.284;2022-08-01T14:18:46;20.67;;;11.15;;
58516;SDS011;44308;50.810;0.284;2022-08-01T14:21:14;18.95;;;10.18;;
58516;SDS011;44308;50.810;0.284;2022-08-01T14:23:42;20.85;;;11.55;;
58516;SDS011;44308;50.810;0.284;2022-08-01T14:26:08;14.65;;;10.32;;
58516;SDS011;44308;50.810;0.284;2022-08-01T14:28:35;17.45;;;10.73;;
58516;SDS011;44308;50.810;0.284;2022-08-01T14:31:01;13.93;;;9.77;;
58516;SDS011;44308;50.810;0.284;2022-08-01T14:33:27;19.15;;;11.00;;
58516;SDS011;44308;50.810;0.284;2022-08-01T14:35:54;15.02;;;9.73;;
58516;SDS011;44308;50.810;0.284;2022-08-01T14:38:20;20.80;;;9.05;;
58516;SDS011;44308;50.810;0.284;2022-08-01T14:40:46;19.23;;;10.43;;
58516;SDS011;44308;50.810;0.284;2022-08-01T14:43:16;27.13;;;9.57;;
58516;SDS011;44308;50.810;0.284;2022-08-01T14:45:43;32.22;;;10.05;;
58516;SDS011;44308;50.810;0.284;2022-08-01T14:48:09;17.67;;;7.55;;
58516;SDS011;44308;50.810;0.284;2022-08-01T14:50:35;22.30;;;8.27;;
58516;SDS011;44308;50.810;0.284;2022-08-01T14:53:01;19.00;;;8.60;;
58516;SDS011;44308;50.810;0.284;2022-08-01T14:55:28;15.48;;;7.22;;
58516;SDS011;44308;50.810;0.284;2022-08-01T14:57:53;12.43;;;7.22;;
58516;SDS011;44308;50.810;0.284;2022-08-01T15:00:19;15.38;;;7.32;;
58516;SDS011;44308;50.810;0.284;2022-08-01T15:02:46;12.60;;;7.68;;
58516;SDS011;44308;50.810;0.284;2022-08-01T15:05:12;15.20;;;8.77;;
58516;SDS011;44308;50.810;0.284;2022-08-01T15:07:38;10.70;;;8.48;;
58516;SDS011;44308;50.810;0.284;2022-08-01T15:10:04;12.75;;;8.65;;
58516;SDS011;44308;50.810;0.284;2022-08-01T15:12:30;9.90;;;8.80;;
58516;SDS011;44308;50.810;0.284;2022-08-01T15:14:56;9.90;;;8.52;;
58516;SDS011;44308;50.810;0.284;2022-08-01T15:17:30;20.75;;;9.30;;
58516;SDS011;44308;50.810;0.284;2022-08-01T15:19:58;11.70;;;10.10;;
58516;SDS011;44308;50.810;0.284;2022-08-01T15:22:25;16.05;;;9.93;;
58516;SDS011;44308;50.810;0.284;2022-08-01T15:24:52;10.57;;;9.57;;
58516;SDS011;44308;50.810;0.284;2022-08-01T15:27:20;17.60;;;10.73;;
58516;SDS011;44308;50.810;0.284;2022-08-01T15:29:48;14.30;;;10.18;;
58516;SDS011;44308;50.810;0.284;2022-08-01T15:32:14;12.25;;;9.90;;
58516;SDS011;44308;50.810;0.284;2022-08-01T15:34:41;13.05;;;10.70;;
58516;SDS011;44308;50.810;0.284;2022-08-01T15:37:07;12.77;;;10.50;;
58516;SDS011;44308;50.810;0.284;2022-08-01T15:39:34;15.25;;;11.55;;
58516;SDS011;44308;50.810;0.284;2022-08-01T15:42:02;14.32;;;11.43;;
58516;SDS011;44308;50.810;0.284;2022-08-01T15:44:34;9.68;;;8.68;;